IJmuiden, Nederland

8:08 PM CET op 28 november 2014 (GMT +0100)
Centrum | Change Station
CLOSE
Current Station
Persoonlijk weerstation
Location: IJmuiden, NOORD-HOLLAND
Geometrische hoogte: 36 ft
Nabije weerstations

Hoogte 36 ft 52.46 °N, 4.61 °E | Updated 2 seconds ago

Clear
Helder
42.4 °F
Voelt als 40 °F
N
3.8
Wind Variabel Wind van NNO
Gusts 8.1 mijl/u

Vandaag
Hoog -- | Laag -- °F
--% Kans op neerslag
Gisteren
Hoog -- | Laag -- °F
Precip. -- inches
8:24 AM 4:34 PM
Wassende halvemaan, 43% visible
Druk 29.86 inches
Zicht -9999.0 mijlen
Wolken
Gevoelstemperatuur 40 °F
Dauwpunt 41 °F
Vochtigheid 92%
Neerslag 0.00 inches
Dikte sneeuw Niet beschikbaar.
UV 0.0 van de 12
Pollen Niet beschikbaar.
Luchtkwaliteit Niet beschikbaar.
Flu Activity Niet beschikbaar.
METAR EHAM 281855Z 09011KT 060V120 CAVOK 06/03 Q1011 NOSIG

More Conditions Fewer Conditions

Druk 29.86 inches
Zicht -9999.0 mijlen
Wolken
Gevoelstemperatuur 40 °F
Dauwpunt 41 °F
Vochtigheid 92%
Neerslag 0.00 inches
Dikte sneeuw Niet beschikbaar.
UV 0.0 van de 12
Pollen Niet beschikbaar.
Luchtkwaliteit Niet beschikbaar.
Flu Activity Niet beschikbaar.
METAR EHAM 281855Z 09011KT 060V120 CAVOK 06/03 Q1011 NOSIG

More Conditions Fewer Conditions

10-Day Weather Forecast

Almanac

Astronomie

Nov. 28, 2014 Opkomst Ondergang
Werkelijke tijd
Burgerlijke schemering
Nautische schemering
Astronomische schemering
Maan
Golflengte van het zichtbare licht
Daglengte
Tomorrow will be .
, % of the Moon is Illuminated

Extremen vandaag

Country Highs Country Lows

Community

WunderPhotos

Upload Photos

1,774,261 foto’s ge-upload!

WunderBlogs® & News

Nearby

Luchtkwaliteit

  Luchtkwaliteit LK-index Verontreinigende stof
Not available.

Dikte sneeuw

Station Depth Geometrische hoogte

Aardbevingen

Stad Distance Mag. Time & Date
Minimum magnitude displayed is 2.5.

Watertemperatuur langs de kust

Plaats Temperatuur

Nabije weerstations